createdAt,value
2019-04-03T00:02:17.230Z,10.69
2019-04-03T00:04:47.667Z,10.43
2019-04-03T00:07:18.018Z,10.34
2019-04-03T00:09:48.455Z,10.34
2019-04-03T00:12:19.016Z,10.27
2019-04-03T00:14:49.393Z,10.22
2019-04-03T00:17:19.833Z,10.25
2019-04-03T00:19:50.216Z,10.11
2019-04-03T00:22:21.965Z,9.99
2019-04-03T00:24:52.908Z,9.83
2019-04-03T00:27:23.605Z,9.75
2019-04-03T00:29:53.973Z,9.71
2019-04-03T00:32:24.443Z,9.65
2019-04-03T00:34:54.927Z,9.61
2019-04-03T00:37:25.374Z,9.57
2019-04-03T00:39:55.708Z,9.68
2019-04-03T00:42:26.179Z,9.61
2019-04-03T00:44:56.781Z,9.49
2019-04-03T00:47:27.164Z,9.35
2019-04-03T00:49:57.597Z,9.36
2019-04-03T00:52:28.135Z,9.35
2019-04-03T00:54:58.614Z,9.27
2019-04-03T00:57:29.277Z,9.19
2019-04-03T00:59:59.814Z,9.15
2019-04-03T01:02:30.207Z,9.13
2019-04-03T01:05:00.658Z,9.02
2019-04-03T01:07:30.985Z,9.00
2019-04-03T01:10:01.599Z,8.86
2019-04-03T01:12:31.941Z,8.78
2019-04-03T01:15:02.583Z,8.68
2019-04-03T01:17:34.931Z,8.70
2019-04-03T01:20:06.338Z,8.81
2019-04-03T01:22:37.874Z,8.99
2019-04-03T01:25:09.436Z,9.09
2019-04-03T01:27:41.534Z,9.17
2019-04-03T01:30:14.014Z,9.16
2019-04-03T01:32:46.086Z,9.07
2019-04-03T01:35:17.436Z,8.92
2019-04-03T01:37:49.912Z,8.89
2019-04-03T01:40:21.081Z,8.87
2019-04-03T01:42:52.820Z,9.03
2019-04-03T01:45:25.916Z,9.18
2019-04-03T01:47:58.188Z,9.31
2019-04-03T01:50:28.703Z,9.40
2019-04-03T01:53:01.683Z,9.39
2019-04-03T01:55:34.001Z,9.41
2019-04-03T01:58:06.088Z,9.46
2019-04-03T02:00:37.641Z,9.44
2019-04-03T02:03:10.317Z,9.42
2019-04-03T02:05:43.274Z,9.54
2019-04-03T02:08:14.555Z,9.39
2019-04-03T02:10:45.438Z,9.34
2019-04-03T02:13:17.262Z,9.39
2019-04-03T02:15:52.223Z,9.39
2019-04-03T02:18:23.600Z,9.28
2019-04-03T02:20:57.325Z,9.24
2019-04-03T02:23:26.859Z,9.27
2019-04-03T02:25:57.308Z,9.32
2019-04-03T02:28:27.752Z,9.31
2019-04-03T02:30:58.233Z,9.36
2019-04-03T02:33:29.461Z,9.51
2019-04-03T02:36:00.245Z,9.63
2019-04-03T02:38:30.832Z,9.65
2019-04-03T02:41:03.451Z,9.59
2019-04-03T02:43:33.542Z,9.60
2019-04-03T02:46:04.443Z,9.54
2019-04-03T02:48:38.256Z,9.43
2019-04-03T02:51:07.395Z,9.49
2019-04-03T02:53:37.839Z,9.55
2019-04-03T02:56:11.838Z,9.62
2019-04-03T02:58:40.640Z,9.61
2019-04-03T03:01:11.210Z,9.66
2019-04-03T03:03:41.543Z,9.66
2019-04-03T03:06:12.655Z,9.64
2019-04-03T03:08:44.050Z,9.81
2019-04-03T03:11:14.606Z,9.93
2019-04-03T03:13:46.367Z,10.02
2019-04-03T03:16:18.423Z,10.12
2019-04-03T03:18:49.019Z,10.19
2019-04-03T03:21:21.523Z,10.29
2019-04-03T03:23:55.207Z,10.35
2019-04-03T03:26:24.684Z,10.38
2019-04-03T03:28:55.188Z,10.41
2019-04-03T03:31:56.374Z,10.40
2019-04-03T03:34:02.973Z,10.39
2019-04-03T03:36:30.403Z,10.35
2019-04-03T03:39:01.426Z,10.28
2019-04-03T03:41:32.825Z,10.25
2019-04-03T03:44:04.165Z,10.17
2019-04-03T03:46:34.810Z,10.10
2019-04-03T03:49:05.648Z,10.07
2019-04-03T03:51:36.097Z,10.09
2019-04-03T03:54:06.585Z,10.17
2019-04-03T03:56:37.031Z,10.20
2019-04-03T03:59:07.726Z,10.19
2019-04-03T04:01:38.341Z,10.25
2019-04-03T04:04:12.960Z,10.31
2019-04-03T04:06:40.898Z,10.33
2019-04-03T04:09:11.525Z,10.33
2019-04-03T04:11:41.999Z,10.33
2019-04-03T04:14:13.937Z,10.29
2019-04-03T04:16:44.728Z,10.29
2019-04-03T04:19:15.645Z,10.05
2019-04-03T04:21:46.531Z,10.04
2019-04-03T04:24:17.149Z,10.09
2019-04-03T04:26:49.937Z,10.11
2019-04-03T04:29:19.791Z,10.15
2019-04-03T04:31:50.307Z,10.11
2019-04-03T04:34:20.709Z,10.08
2019-04-03T04:36:51.263Z,10.03
2019-04-03T04:39:21.675Z,10.01
2019-04-03T04:41:52.228Z,9.95
2019-04-03T04:44:22.719Z,9.79
2019-04-03T04:46:53.173Z,9.72
2019-04-03T04:49:23.567Z,9.62
2019-04-03T04:51:56.589Z,9.52
2019-04-03T04:54:26.218Z,9.44
2019-04-03T04:56:56.623Z,9.36
2019-04-03T04:59:27.071Z,9.30
2019-04-03T05:01:57.565Z,9.13
2019-04-03T05:04:28.017Z,9.01
2019-04-03T05:07:00.135Z,9.05
2019-04-03T05:09:30.745Z,9.01
2019-04-03T05:12:01.246Z,8.96
2019-04-03T05:14:31.736Z,8.92
2019-04-03T05:17:02.233Z,8.89
2019-04-03T05:19:32.960Z,8.87
2019-04-03T05:22:03.284Z,8.81
2019-04-03T05:24:33.790Z,8.82
2019-04-03T05:27:07.106Z,8.94
2019-04-03T05:29:36.387Z,9.00
2019-04-03T05:32:09.918Z,8.91
2019-04-03T05:34:39.053Z,8.81
2019-04-03T05:37:11.655Z,8.80
2019-04-03T05:39:42.234Z,8.85
2019-04-03T05:42:12.919Z,8.95
2019-04-03T05:44:43.379Z,9.08
2019-04-03T05:47:13.875Z,9.28
2019-04-03T05:49:46.421Z,9.45
2019-04-03T05:52:16.410Z,9.46
2019-04-03T05:54:46.855Z,9.49
2019-04-03T05:57:17.402Z,9.45
2019-04-03T05:59:59.151Z,9.47
2019-04-03T06:02:21.985Z,9.60
2019-04-03T06:04:52.507Z,9.63
2019-04-03T06:07:23.124Z,9.53
2019-04-03T06:09:54.427Z,9.63
2019-04-03T06:12:25.753Z,9.75
2019-04-03T06:14:56.482Z,9.76
2019-04-03T06:17:26.959Z,9.89
2019-04-03T06:19:57.733Z,10.14
2019-04-03T06:22:28.181Z,10.31
2019-04-03T06:24:58.883Z,10.52
2019-04-03T06:27:29.558Z,10.67
2019-04-03T06:30:00.069Z,10.79
2019-04-03T06:32:30.480Z,10.97
2019-04-03T06:35:01.024Z,11.19
2019-04-03T06:37:31.539Z,11.39
2019-04-03T06:40:03.293Z,11.58
2019-04-03T06:42:34.399Z,11.73
2019-04-03T06:45:05.547Z,11.91
2019-04-03T06:47:35.929Z,12.16
2019-04-03T06:50:07.398Z,12.15
2019-04-03T06:52:37.959Z,12.31
2019-04-03T06:55:08.517Z,12.49
2019-04-03T06:57:39.748Z,12.62
2019-04-03T07:00:10.694Z,12.66
2019-04-03T07:02:41.543Z,12.74
2019-04-03T07:05:12.025Z,12.80
2019-04-03T07:07:42.703Z,12.82
2019-04-03T07:10:24.079Z,12.83
2019-04-03T07:12:47.830Z,12.88
2019-04-03T07:15:17.486Z,12.87
2019-04-03T07:17:47.994Z,12.90
2019-04-03T07:20:20.137Z,12.95
2019-04-03T07:22:50.685Z,13.06
2019-04-03T07:25:21.387Z,13.15
2019-04-03T07:27:51.902Z,13.54
2019-04-03T07:30:22.511Z,13.97
2019-04-03T07:32:53.028Z,14.23
2019-04-03T07:35:23.396Z,14.22
2019-04-03T07:37:53.925Z,14.13
2019-04-03T07:40:24.392Z,14.23
2019-04-03T07:42:56.005Z,14.54
2019-04-03T07:45:27.202Z,14.90
2019-04-03T07:47:57.914Z,15.48
2019-04-03T07:50:28.434Z,16.09
2019-04-03T07:52:58.894Z,16.66
2019-04-03T07:55:29.557Z,17.21
2019-04-03T07:58:01.040Z,17.76
2019-04-03T08:00:31.998Z,18.18
2019-04-03T08:03:02.647Z,18.70
2019-04-03T08:05:33.247Z,19.11
2019-04-03T08:08:03.769Z,19.63
2019-04-03T08:10:37.138Z,20.09
2019-04-03T08:13:07.613Z,20.54
2019-04-03T08:15:38.211Z,20.84
2019-04-03T08:18:08.621Z,21.14
2019-04-03T08:20:39.368Z,21.44
2019-04-03T08:23:09.808Z,21.48
2019-04-03T08:25:42.405Z,22.04
2019-04-03T08:28:12.370Z,22.02
2019-04-03T08:30:42.869Z,22.09
2019-04-03T08:33:17.396Z,22.42
2019-04-03T08:35:46.648Z,22.54
2019-04-03T08:38:17.165Z,22.39
2019-04-03T08:40:48.002Z,22.97
2019-04-03T08:43:18.595Z,23.14
2019-04-03T08:45:49.136Z,23.58
2019-04-03T08:48:19.598Z,23.42
2019-04-03T08:50:50.047Z,23.58
2019-04-03T08:53:20.491Z,23.61
2019-04-03T08:55:50.956Z,24.17
2019-04-03T08:58:22.110Z,23.90
2019-04-03T09:00:53.757Z,24.09
2019-04-03T09:03:24.310Z,23.90
2019-04-03T09:05:55.848Z,24.48
2019-04-03T09:08:27.145Z,24.32
2019-04-03T09:10:57.702Z,24.34
2019-04-03T09:13:28.700Z,23.95
2019-04-03T09:16:00.263Z,23.88
2019-04-03T09:18:30.965Z,23.82
2019-04-03T09:21:01.580Z,24.17
2019-04-03T09:23:31.976Z,24.32
2019-04-03T09:26:03.802Z,24.55
2019-04-03T09:28:34.323Z,23.73
2019-04-03T09:31:04.801Z,23.88
2019-04-03T09:33:35.177Z,24.45
2019-04-03T09:36:05.722Z,23.58
2019-04-03T09:38:36.528Z,22.59
2019-04-03T09:41:06.953Z,22.03
2019-04-03T09:43:39.409Z,22.01
2019-04-03T09:46:09.546Z,21.66
2019-04-03T09:48:39.951Z,21.04
2019-04-03T09:51:10.646Z,20.93
2019-04-03T09:53:41.180Z,21.60
2019-04-03T09:56:12.062Z,22.29
2019-04-03T09:58:42.995Z,22.39
2019-04-03T10:01:17.765Z,22.44
2019-04-03T10:03:45.796Z,22.96
2019-04-03T10:06:16.331Z,23.45
2019-04-03T10:08:47.150Z,23.34
2019-04-03T10:11:19.600Z,24.34
2019-04-03T10:13:49.875Z,24.65
2019-04-03T10:16:20.476Z,25.42
2019-04-03T10:18:51.412Z,25.97
2019-04-03T10:21:22.244Z,26.45
2019-04-03T10:23:52.805Z,25.51
2019-04-03T10:26:23.257Z,26.25
2019-04-03T10:28:53.840Z,25.63
2019-04-03T10:31:24.839Z,26.15
2019-04-03T10:33:55.291Z,25.92
2019-04-03T10:36:25.685Z,25.10
2019-04-03T10:38:56.249Z,25.57
2019-04-03T10:41:28.673Z,26.39
2019-04-03T10:43:59.262Z,26.24
2019-04-03T10:46:29.914Z,25.91
2019-04-03T10:49:01.675Z,26.16
2019-04-03T10:51:32.203Z,26.50
2019-04-03T10:54:02.964Z,27.01
2019-04-03T10:56:33.419Z,26.72
2019-04-03T10:59:10.999Z,26.17
2019-04-03T11:01:36.706Z,25.95
2019-04-03T11:04:07.228Z,25.28
2019-04-03T11:06:37.916Z,26.48
2019-04-03T11:09:10.457Z,26.57
2019-04-03T11:11:42.967Z,27.35
2019-04-03T11:14:13.532Z,28.17
2019-04-03T11:16:46.511Z,28.27
2019-04-03T11:19:16.044Z,28.26
2019-04-03T11:21:46.429Z,28.71
2019-04-03T11:24:17.027Z,28.35
2019-04-03T11:26:49.024Z,27.44
2019-04-03T11:29:19.599Z,27.97
2019-04-03T11:31:50.072Z,26.97
2019-04-03T11:34:21.397Z,27.88
2019-04-03T11:36:52.188Z,28.88
2019-04-03T11:39:22.626Z,29.36
2019-04-03T11:41:55.075Z,30.13
2019-04-03T11:44:25.239Z,28.46
2019-04-03T11:46:56.114Z,28.54
2019-04-03T11:49:26.794Z,28.76
2019-04-03T11:51:58.959Z,28.38
2019-04-03T11:54:29.737Z,28.13
2019-04-03T11:57:00.272Z,29.32
2019-04-03T11:59:30.724Z,29.02
2019-04-03T12:02:01.258Z,29.56
2019-04-03T12:04:31.704Z,29.24
2019-04-03T12:07:02.142Z,28.46
2019-04-03T12:09:32.999Z,29.41
2019-04-03T12:12:05.513Z,30.45
2019-04-03T12:14:38.184Z,30.33
2019-04-03T12:17:10.157Z,30.05
2019-04-03T12:19:40.603Z,28.62
2019-04-03T12:22:11.160Z,28.30
2019-04-03T12:24:41.672Z,28.35
2019-04-03T12:27:14.053Z,27.95
2019-04-03T12:29:44.396Z,29.32
2019-04-03T12:32:15.045Z,29.35
2019-04-03T12:34:45.520Z,28.22
2019-04-03T12:37:18.146Z,25.97
2019-04-03T12:39:48.367Z,24.46
2019-04-03T12:42:18.833Z,23.26
2019-04-03T12:44:49.284Z,23.28
2019-04-03T12:47:19.788Z,24.83
2019-04-03T12:49:51.957Z,26.17
2019-04-03T12:52:23.219Z,26.84
2019-04-03T12:54:54.591Z,27.04
2019-04-03T12:57:25.378Z,28.07
2019-04-03T12:59:56.632Z,28.68
2019-04-03T13:02:27.307Z,28.96
2019-04-03T13:05:00.278Z,28.46
2019-04-03T13:07:30.556Z,28.44
2019-04-03T13:10:01.711Z,27.43
2019-04-03T13:12:32.279Z,27.62
2019-04-03T13:15:04.592Z,27.83
2019-04-03T13:17:34.835Z,27.41
2019-04-03T13:20:06.639Z,27.51
2019-04-03T13:22:37.750Z,26.79
2019-04-03T13:25:09.134Z,26.78
2019-04-03T13:27:39.770Z,25.89
2019-04-03T13:30:13.112Z,25.51
2019-04-03T13:32:51.881Z,25.03
2019-04-03T13:35:16.750Z,23.86
2019-04-03T13:37:47.577Z,23.25
2019-04-03T13:40:18.828Z,22.66
2019-04-03T13:42:49.644Z,22.61
2019-04-03T13:45:20.511Z,22.58
2019-04-03T13:47:51.036Z,23.08
2019-04-03T13:50:22.500Z,23.03
2019-04-03T13:52:54.045Z,22.99
2019-04-03T13:55:24.668Z,23.01
2019-04-03T13:57:55.212Z,23.05
2019-04-03T14:00:25.747Z,22.90
2019-04-03T14:02:57.769Z,22.63
2019-04-03T14:05:32.340Z,22.43
2019-04-03T14:08:00.715Z,22.58
2019-04-03T14:10:31.197Z,22.73
2019-04-03T14:13:01.680Z,22.64
2019-04-03T14:15:32.455Z,22.44
2019-04-03T14:18:03.033Z,22.58
2019-04-03T14:20:33.477Z,22.66
2019-04-03T14:23:04.600Z,22.16
2019-04-03T14:25:38.031Z,22.03
2019-04-03T14:28:07.582Z,21.90
2019-04-03T14:30:38.387Z,21.98
2019-04-03T14:33:08.822Z,22.20
2019-04-03T14:35:48.976Z,21.77
2019-04-03T14:38:12.366Z,21.76
2019-04-03T14:40:43.535Z,21.84
2019-04-03T14:43:15.268Z,22.00
2019-04-03T14:45:52.831Z,22.06
2019-04-03T14:48:24.121Z,22.35
2019-04-03T14:50:55.536Z,22.46
2019-04-03T14:53:26.070Z,22.60
2019-04-03T14:55:59.805Z,22.86
2019-04-03T14:58:28.655Z,22.88
2019-04-03T15:00:59.092Z,22.72
2019-04-03T15:03:29.450Z,22.53
2019-04-03T15:06:00.395Z,22.29
2019-04-03T15:08:31.334Z,22.07
2019-04-03T15:11:03.006Z,21.86
2019-04-03T15:13:34.314Z,21.70
2019-04-03T15:16:05.234Z,21.52
2019-04-03T15:18:36.171Z,21.33
2019-04-03T15:21:06.753Z,21.05
2019-04-03T15:23:40.440Z,20.87
2019-04-03T15:26:09.440Z,20.95
2019-04-03T15:28:39.902Z,20.83
2019-04-03T15:31:11.981Z,20.84
2019-04-03T15:33:42.501Z,20.75
2019-04-03T15:36:13.468Z,20.68
2019-04-03T15:38:45.302Z,20.59
2019-04-03T15:41:16.226Z,20.48
2019-04-03T15:43:47.733Z,20.31
2019-04-03T15:46:18.912Z,20.21
2019-04-03T15:48:51.037Z,19.98
2019-04-03T15:51:21.410Z,19.87
2019-04-03T15:53:51.878Z,19.82
2019-04-03T15:56:22.365Z,19.70
2019-04-03T15:58:53.094Z,19.65
2019-04-03T16:01:23.578Z,19.56
2019-04-03T16:03:54.453Z,19.57
2019-04-03T16:06:24.974Z,19.49
2019-04-03T16:08:55.529Z,19.40
2019-04-03T16:11:27.003Z,19.39
2019-04-03T16:13:58.098Z,19.22
2019-04-03T16:16:29.377Z,19.18
2019-04-03T16:19:00.461Z,19.13
2019-04-03T16:21:31.652Z,18.99
2019-04-03T16:24:02.713Z,18.95
2019-04-03T16:26:33.712Z,18.87
2019-04-03T16:29:06.639Z,18.65
2019-04-03T16:31:36.568Z,18.63
2019-04-03T16:34:09.387Z,18.50
2019-04-03T16:36:39.571Z,18.42
2019-04-03T16:39:10.430Z,18.37
2019-04-03T16:41:43.296Z,18.34
2019-04-03T16:44:13.217Z,18.24
2019-04-03T16:46:43.658Z,18.28
2019-04-03T16:49:14.220Z,18.28
2019-04-03T16:51:44.760Z,18.21
2019-04-03T16:54:15.652Z,18.24
2019-04-03T16:56:47.001Z,18.22
2019-04-03T16:59:18.322Z,18.06
2019-04-03T17:01:48.872Z,17.96
2019-04-03T17:04:26.108Z,17.94
2019-04-03T17:06:51.383Z,17.91
2019-04-03T17:09:21.796Z,17.96
2019-04-03T17:11:52.250Z,17.91
2019-04-03T17:14:24.417Z,17.82
2019-04-03T17:16:55.025Z,17.80
2019-04-03T17:19:25.607Z,17.74
2019-04-03T17:21:56.158Z,17.76
2019-04-03T17:24:26.931Z,17.77
2019-04-03T17:26:59.569Z,17.76
2019-04-03T17:29:29.588Z,17.71
2019-04-03T17:32:00.054Z,17.59
2019-04-03T17:34:30.514Z,17.51
2019-04-03T17:37:01.426Z,17.44
2019-04-03T17:39:31.878Z,17.28
2019-04-03T17:42:02.302Z,17.22
2019-04-03T17:44:32.736Z,17.11
2019-04-03T17:47:03.285Z,17.02
2019-04-03T17:49:33.789Z,17.01
2019-04-03T17:52:05.151Z,16.93
2019-04-03T17:54:38.288Z,16.84
2019-04-03T17:57:08.562Z,16.63
2019-04-03T17:59:39.005Z,16.48
2019-04-03T18:02:09.424Z,16.42
2019-04-03T18:04:39.949Z,16.34
2019-04-03T18:07:12.119Z,16.21
2019-04-03T18:09:42.847Z,16.04
2019-04-03T18:12:13.484Z,15.93
2019-04-03T18:14:43.953Z,15.86
2019-04-03T18:17:14.341Z,15.82
2019-04-03T18:19:45.101Z,15.82
2019-04-03T18:22:15.597Z,15.82
2019-04-03T18:24:46.120Z,15.81
2019-04-03T18:27:16.648Z,15.82
2019-04-03T18:29:47.063Z,15.83
2019-04-03T18:32:17.616Z,15.80
2019-04-03T18:34:51.061Z,15.77
2019-04-03T18:37:20.084Z,15.78
2019-04-03T18:39:51.508Z,15.72
2019-04-03T18:42:22.073Z,15.69
2019-04-03T18:44:52.546Z,15.70
2019-04-03T18:47:22.998Z,15.70
2019-04-03T18:49:55.496Z,15.65
2019-04-03T18:52:25.623Z,15.60
2019-04-03T18:54:56.061Z,15.49
2019-04-03T18:57:26.477Z,15.35
2019-04-03T19:00:00.355Z,15.29
2019-04-03T19:02:29.198Z,15.18
2019-04-03T19:05:02.357Z,15.15
2019-04-03T19:07:31.921Z,15.07
2019-04-03T19:10:07.357Z,15.02
2019-04-03T19:12:36.066Z,14.96
2019-04-03T19:15:08.163Z,14.89
2019-04-03T19:17:38.551Z,14.77
2019-04-03T19:20:11.000Z,14.68
2019-04-03T19:22:41.939Z,14.66
2019-04-03T19:25:12.425Z,14.50
2019-04-03T19:27:42.840Z,14.33
2019-04-03T19:30:15.295Z,14.23
2019-04-03T19:32:45.750Z,14.12
2019-04-03T19:35:16.299Z,14.07
2019-04-03T19:37:46.692Z,14.02
2019-04-03T19:40:17.186Z,13.95
2019-04-03T19:42:48.957Z,13.92
2019-04-03T19:45:21.359Z,13.79
2019-04-03T19:47:54.598Z,13.67
2019-04-03T19:50:24.064Z,13.55
2019-04-03T19:52:54.554Z,13.57
2019-04-03T19:55:24.962Z,13.45
2019-04-03T19:57:57.466Z,13.35
2019-04-03T20:00:27.734Z,13.17
2019-04-03T20:02:58.382Z,13.16
2019-04-03T20:05:29.597Z,13.08
2019-04-03T20:08:00.074Z,13.13
2019-04-03T20:10:33.524Z,13.06
2019-04-03T20:13:02.751Z,13.06
2019-04-03T20:15:33.147Z,13.04
2019-04-03T20:18:03.578Z,13.19
2019-04-03T20:20:34.026Z,13.23
2019-04-03T20:23:04.508Z,13.17
2019-04-03T20:25:34.928Z,13.15
2019-04-03T20:28:05.545Z,13.07
2019-04-03T20:30:36.013Z,13.06
2019-04-03T20:33:06.424Z,13.16
2019-04-03T20:35:36.970Z,13.16
2019-04-03T20:38:07.368Z,13.08
2019-04-03T20:40:39.825Z,12.87
2019-04-03T20:43:11.918Z,12.59
2019-04-03T20:45:42.463Z,12.04
2019-04-03T20:48:12.887Z,11.77
2019-04-03T20:50:43.367Z,10.95
2019-04-03T20:53:16.783Z,10.70
2019-04-03T20:55:46.724Z,9.96
2019-04-03T20:58:17.086Z,9.80
2019-04-03T21:00:49.972Z,9.81
2019-04-03T21:03:19.593Z,9.65
2019-04-03T21:05:50.033Z,9.49
2019-04-03T21:08:20.514Z,9.47
2019-04-03T21:10:51.903Z,9.36
2019-04-03T21:13:22.669Z,9.26
2019-04-03T21:15:53.175Z,9.00
2019-04-03T21:18:23.640Z,9.01
2019-04-03T21:20:54.710Z,8.98
2019-04-03T21:23:25.738Z,8.85
2019-04-03T21:25:56.179Z,8.75
2019-04-03T21:28:26.653Z,8.56
2019-04-03T21:30:57.002Z,8.39
2019-04-03T21:33:30.518Z,8.38
2019-04-03T21:35:59.729Z,8.39
2019-04-03T21:38:30.202Z,8.41
2019-04-03T21:41:00.554Z,8.21
2019-04-03T21:43:30.956Z,8.37
2019-04-03T21:46:01.341Z,8.45
2019-04-03T21:48:31.788Z,8.48
2019-04-03T21:51:02.380Z,8.50
2019-04-03T21:53:32.751Z,8.29
2019-04-03T21:56:03.177Z,8.10
2019-04-03T21:58:33.533Z,8.04
2019-04-03T22:01:25.274Z,8.09
2019-04-03T22:03:55.721Z,8.11
2019-04-03T22:06:27.598Z,8.14
2019-04-03T22:09:00.508Z,8.12
2019-04-03T22:11:30.414Z,8.22
2019-04-03T22:14:00.970Z,8.26
2019-04-03T22:16:31.445Z,8.33
2019-04-03T22:19:01.782Z,8.38
2019-04-03T22:21:32.945Z,8.28
2019-04-03T22:24:06.598Z,8.25
2019-04-03T22:26:35.899Z,8.05
2019-04-03T22:29:06.293Z,8.02
2019-04-03T22:31:36.691Z,7.99
2019-04-03T22:34:07.108Z,7.95
2019-04-03T22:36:37.630Z,7.88
2019-04-03T22:39:08.798Z,7.81
2019-04-03T22:41:40.948Z,7.89
2019-04-03T22:44:11.524Z,7.81
2019-04-03T22:46:41.872Z,7.63
2019-04-03T22:49:12.366Z,7.52
2019-04-03T22:51:42.801Z,7.53
2019-04-03T22:54:13.339Z,7.64
2019-04-03T22:56:43.838Z,7.73
2019-04-03T22:59:15.885Z,7.77
2019-04-03T23:01:46.303Z,7.74
2019-04-03T23:04:16.694Z,7.92
2019-04-03T23:06:49.375Z,7.98
2019-04-03T23:09:19.169Z,8.03
2019-04-03T23:11:49.685Z,7.97
2019-04-03T23:14:20.132Z,8.03
2019-04-03T23:16:50.617Z,7.97
2019-04-03T23:19:21.084Z,7.89
2019-04-03T23:21:52.900Z,7.88
2019-04-03T23:24:23.862Z,7.90
2019-04-03T23:26:54.383Z,7.73
2019-04-03T23:29:24.957Z,7.69
2019-04-03T23:31:55.471Z,7.71
2019-04-03T23:34:25.857Z,7.73
2019-04-03T23:36:56.320Z,7.79
2019-04-03T23:39:28.012Z,7.70
2019-04-03T23:41:58.858Z,7.65
2019-04-03T23:44:29.369Z,7.69
2019-04-03T23:46:59.859Z,7.72
2019-04-03T23:49:30.312Z,7.70
2019-04-03T23:52:00.797Z,7.72
2019-04-03T23:54:33.574Z,7.71
2019-04-03T23:57:03.527Z,7.66
2019-04-03T23:59:34.007Z,7.75
